sensor_id;sensor_type;location;lat;lon;timestamp;temperature;humidity
43894;DHT22;29556;50.846;4.442;2023-02-15T00:01:11;5.90;84.90
43894;DHT22;29556;50.846;4.442;2023-02-15T00:03:37;5.70;84.70
43894;DHT22;29556;50.846;4.442;2023-02-15T00:06:03;5.70;84.80
43894;DHT22;29556;50.846;4.442;2023-02-15T00:08:29;5.70;84.80
43894;DHT22;29556;50.846;4.442;2023-02-15T00:11:17;5.70;84.70
43894;DHT22;29556;50.846;4.442;2023-02-15T00:14:05;5.70;84.90
43894;DHT22;29556;50.846;4.442;2023-02-15T00:16:31;5.70;84.70
43894;DHT22;29556;50.846;4.442;2023-02-15T00:18:56;5.80;84.90
43894;DHT22;29556;50.846;4.442;2023-02-15T00:21:22;5.60;84.80
43894;DHT22;29556;50.846;4.442;2023-02-15T00:23:47;5.60;84.80
43894;DHT22;29556;50.846;4.442;2023-02-15T00:26:13;5.60;84.80
43894;DHT22;29556;50.846;4.442;2023-02-15T00:28:39;5.60;84.80
43894;DHT22;29556;50.846;4.442;2023-02-15T00:31:09;5.60;84.90
43894;DHT22;29556;50.846;4.442;2023-02-15T00:33:36;5.60;85.00
43894;DHT22;29556;50.846;4.442;2023-02-15T00:36:03;5.50;84.90
43894;DHT22;29556;50.846;4.442;2023-02-15T00:38:30;5.50;84.90
43894;DHT22;29556;50.846;4.442;2023-02-15T00:40:57;5.60;84.90
43894;DHT22;29556;50.846;4.442;2023-02-15T00:43:24;5.50;84.90
43894;DHT22;29556;50.846;4.442;2023-02-15T00:45:50;5.50;84.90
43894;DHT22;29556;50.846;4.442;2023-02-15T00:48:16;5.50;84.90
43894;DHT22;29556;50.846;4.442;2023-02-15T00:50:43;5.40;84.90
43894;DHT22;29556;50.846;4.442;2023-02-15T00:53:09;5.50;84.90
43894;DHT22;29556;50.846;4.442;2023-02-15T00:55:35;5.40;84.90
43894;DHT22;29556;50.846;4.442;2023-02-15T00:58:02;5.40;84.90
43894;DHT22;29556;50.846;4.442;2023-02-15T01:00:27;5.40;85.00
43894;DHT22;29556;50.846;4.442;2023-02-15T01:02:53;5.40;85.00
43894;DHT22;29556;50.846;4.442;2023-02-15T01:05:19;5.40;84.90
43894;DHT22;29556;50.846;4.442;2023-02-15T01:07:45;5.40;84.90
43894;DHT22;29556;50.846;4.442;2023-02-15T01:10:11;5.30;84.80
43894;DHT22;29556;50.846;4.442;2023-02-15T01:12:36;5.30;84.90
43894;DHT22;29556;50.846;4.442;2023-02-15T01:15:02;5.30;84.90
43894;DHT22;29556;50.846;4.442;2023-02-15T01:17:28;5.30;84.90
43894;DHT22;29556;50.846;4.442;2023-02-15T01:19:54;5.30;85.00
43894;DHT22;29556;50.846;4.442;2023-02-15T01:22:20;5.30;85.10
43894;DHT22;29556;50.846;4.442;2023-02-15T01:24:48;5.30;85.10
43894;DHT22;29556;50.846;4.442;2023-02-15T01:27:14;5.40;85.20
43894;DHT22;29556;50.846;4.442;2023-02-15T01:29:39;5.20;85.10
43894;DHT22;29556;50.846;4.442;2023-02-15T01:32:05;5.20;85.10
43894;DHT22;29556;50.846;4.442;2023-02-15T01:34:30;5.30;85.20
43894;DHT22;29556;50.846;4.442;2023-02-15T01:36:57;5.20;85.10
43894;DHT22;29556;50.846;4.442;2023-02-15T01:39:23;5.20;85.20
43894;DHT22;29556;50.846;4.442;2023-02-15T01:41:48;5.20;85.20
43894;DHT22;29556;50.846;4.442;2023-02-15T01:47:20;5.20;85.30
43894;DHT22;29556;50.846;4.442;2023-02-15T01:49:47;5.20;85.20
43894;DHT22;29556;50.846;4.442;2023-02-15T01:52:16;5.20;85.20
43894;DHT22;29556;50.846;4.442;2023-02-15T01:54:45;5.20;85.20
43894;DHT22;29556;50.846;4.442;2023-02-15T01:57:15;5.20;85.10
43894;DHT22;29556;50.846;4.442;2023-02-15T01:59:44;5.10;85.10
43894;DHT22;29556;50.846;4.442;2023-02-15T02:02:13;5.10;85.10
43894;DHT22;29556;50.846;4.442;2023-02-15T02:04:48;5.10;85.00
43894;DHT22;29556;50.846;4.442;2023-02-15T02:07:15;5.10;85.10
43894;DHT22;29556;50.846;4.442;2023-02-15T02:09:42;5.10;85.10
43894;DHT22;29556;50.846;4.442;2023-02-15T02:12:09;5.00;85.20
43894;DHT22;29556;50.846;4.442;2023-02-15T02:14:36;5.00;85.20
43894;DHT22;29556;50.846;4.442;2023-02-15T02:17:15;5.00;85.20
43894;DHT22;29556;50.846;4.442;2023-02-15T02:23:11;5.00;85.30
43894;DHT22;29556;50.846;4.442;2023-02-15T02:25:50;5.00;85.30
43894;DHT22;29556;50.846;4.442;2023-02-15T02:39:30;4.90;85.30
43894;DHT22;29556;50.846;4.442;2023-02-15T02:42:05;4.90;85.30
43894;DHT22;29556;50.846;4.442;2023-02-15T02:44:48;4.80;85.20
43894;DHT22;29556;50.846;4.442;2023-02-15T02:47:29;4.80;85.30
43894;DHT22;29556;50.846;4.442;2023-02-15T02:50:03;4.80;85.30
43894;DHT22;29556;50.846;4.442;2023-02-15T02:52:40;4.80;85.30
43894;DHT22;29556;50.846;4.442;2023-02-15T03:00:24;4.70;85.20
43894;DHT22;29556;50.846;4.442;2023-02-15T03:02:56;4.70;85.30
43894;DHT22;29556;50.846;4.442;2023-02-15T03:05:27;4.70;85.30
43894;DHT22;29556;50.846;4.442;2023-02-15T03:07:55;4.70;85.30
43894;DHT22;29556;50.846;4.442;2023-02-15T03:10:23;4.70;85.30
43894;DHT22;29556;50.846;4.442;2023-02-15T03:12:50;4.70;85.30
43894;DHT22;29556;50.846;4.442;2023-02-15T03:15:24;4.70;85.30
43894;DHT22;29556;50.846;4.442;2023-02-15T03:18:00;4.70;85.40
43894;DHT22;29556;50.846;4.442;2023-02-15T03:20:34;4.70;85.40
43894;DHT22;29556;50.846;4.442;2023-02-15T03:23:01;4.60;85.30
43894;DHT22;29556;50.846;4.442;2023-02-15T03:25:36;4.60;85.30
43894;DHT22;29556;50.846;4.442;2023-02-15T03:28:11;4.60;85.40
43894;DHT22;29556;50.846;4.442;2023-02-15T03:30:40;4.60;85.30
43894;DHT22;29556;50.846;4.442;2023-02-15T03:33:08;4.60;85.30
43894;DHT22;29556;50.846;4.442;2023-02-15T03:35:50;4.60;85.30
43894;DHT22;29556;50.846;4.442;2023-02-15T03:38:22;4.60;85.40
43894;DHT22;29556;50.846;4.442;2023-02-15T03:40:49;4.50;85.20
43894;DHT22;29556;50.846;4.442;2023-02-15T03:43:58;4.50;85.10
43894;DHT22;29556;50.846;4.442;2023-02-15T03:49:21;4.50;85.10
43894;DHT22;29556;50.846;4.442;2023-02-15T03:51:48;4.40;85.10
43894;DHT22;29556;50.846;4.442;2023-02-15T03:54:25;4.40;85.30
43894;DHT22;29556;50.846;4.442;2023-02-15T04:00:00;4.40;85.30
43894;DHT22;29556;50.846;4.442;2023-02-15T04:05:37;4.30;85.30
43894;DHT22;29556;50.846;4.442;2023-02-15T04:08:03;4.30;85.20
43894;DHT22;29556;50.846;4.442;2023-02-15T04:10:29;4.30;85.80
43894;DHT22;29556;50.846;4.442;2023-02-15T04:13:13;4.30;85.30
43894;DHT22;29556;50.846;4.442;2023-02-15T04:15:39;4.30;85.40
43894;DHT22;29556;50.846;4.442;2023-02-15T04:18:23;4.20;85.40
43894;DHT22;29556;50.846;4.442;2023-02-15T04:21:07;4.20;85.30
43894;DHT22;29556;50.846;4.442;2023-02-15T04:23:52;4.20;85.20
43894;DHT22;29556;50.846;4.442;2023-02-15T04:26:36;4.20;85.30
43894;DHT22;29556;50.846;4.442;2023-02-15T04:29:02;4.20;85.30
43894;DHT22;29556;50.846;4.442;2023-02-15T04:31:27;4.20;85.40
43894;DHT22;29556;50.846;4.442;2023-02-15T04:33:53;4.20;85.40
43894;DHT22;29556;50.846;4.442;2023-02-15T04:36:18;4.20;85.40
43894;DHT22;29556;50.846;4.442;2023-02-15T04:38:45;4.20;85.30
43894;DHT22;29556;50.846;4.442;2023-02-15T04:41:11;4.20;85.30
43894;DHT22;29556;50.846;4.442;2023-02-15T04:43:38;4.20;85.30
43894;DHT22;29556;50.846;4.442;2023-02-15T04:46:04;4.20;85.30
43894;DHT22;29556;50.846;4.442;2023-02-15T04:48:30;4.20;85.40
43894;DHT22;29556;50.846;4.442;2023-02-15T04:50:56;4.20;85.40
43894;DHT22;29556;50.846;4.442;2023-02-15T04:53:21;4.20;85.40
43894;DHT22;29556;50.846;4.442;2023-02-15T04:55:47;4.20;86.10
43894;DHT22;29556;50.846;4.442;2023-02-15T04:58:13;4.20;85.40
43894;DHT22;29556;50.846;4.442;2023-02-15T05:00:39;4.20;85.40
43894;DHT22;29556;50.846;4.442;2023-02-15T05:03:04;4.20;85.30
43894;DHT22;29556;50.846;4.442;2023-02-15T05:05:30;4.20;85.30
43894;DHT22;29556;50.846;4.442;2023-02-15T05:07:56;4.10;85.20
43894;DHT22;29556;50.846;4.442;2023-02-15T05:10:22;4.20;85.30
43894;DHT22;29556;50.846;4.442;2023-02-15T05:12:47;4.10;85.20
43894;DHT22;29556;50.846;4.442;2023-02-15T05:15:13;4.10;85.30
43894;DHT22;29556;50.846;4.442;2023-02-15T05:17:39;4.20;85.40
43894;DHT22;29556;50.846;4.442;2023-02-15T05:20:05;4.10;85.20
43894;DHT22;29556;50.846;4.442;2023-02-15T05:22:31;4.10;85.30
43894;DHT22;29556;50.846;4.442;2023-02-15T05:24:57;4.10;85.20
43894;DHT22;29556;50.846;4.442;2023-02-15T05:27:41;4.10;85.20
43894;DHT22;29556;50.846;4.442;2023-02-15T05:30:25;4.10;85.20
43894;DHT22;29556;50.846;4.442;2023-02-15T05:32:50;4.10;85.20
43894;DHT22;29556;50.846;4.442;2023-02-15T05:35:18;4.00;85.20
43894;DHT22;29556;50.846;4.442;2023-02-15T05:37:43;4.00;85.30
43894;DHT22;29556;50.846;4.442;2023-02-15T05:40:09;4.00;85.30
43894;DHT22;29556;50.846;4.442;2023-02-15T05:42:35;4.00;85.20
43894;DHT22;29556;50.846;4.442;2023-02-15T05:45:01;4.00;85.20
43894;DHT22;29556;50.846;4.442;2023-02-15T05:47:26;4.00;85.30
43894;DHT22;29556;50.846;4.442;2023-02-15T05:49:52;4.00;85.30
43894;DHT22;29556;50.846;4.442;2023-02-15T05:52:18;4.00;85.30
43894;DHT22;29556;50.846;4.442;2023-02-15T05:54:43;4.00;85.30
43894;DHT22;29556;50.846;4.442;2023-02-15T05:57:09;4.00;86.10
43894;DHT22;29556;50.846;4.442;2023-02-15T05:59:34;4.00;85.30
43894;DHT22;29556;50.846;4.442;2023-02-15T06:02:00;4.00;85.30
43894;DHT22;29556;50.846;4.442;2023-02-15T06:04:26;4.00;85.30
43894;DHT22;29556;50.846;4.442;2023-02-15T06:06:51;4.00;85.30
43894;DHT22;29556;50.846;4.442;2023-02-15T06:09:17;4.00;85.40
43894;DHT22;29556;50.846;4.442;2023-02-15T06:11:44;3.90;85.40
43894;DHT22;29556;50.846;4.442;2023-02-15T06:14:10;4.00;85.30
43894;DHT22;29556;50.846;4.442;2023-02-15T06:16:36;4.00;85.30
43894;DHT22;29556;50.846;4.442;2023-02-15T06:19:02;3.90;85.30
43894;DHT22;29556;50.846;4.442;2023-02-15T06:21:29;3.90;85.20
43894;DHT22;29556;50.846;4.442;2023-02-15T06:23:55;3.90;85.20
43894;DHT22;29556;50.846;4.442;2023-02-15T06:26:21;4.00;85.30
43894;DHT22;29556;50.846;4.442;2023-02-15T06:28:46;3.90;85.30
43894;DHT22;29556;50.846;4.442;2023-02-15T06:31:12;3.90;85.40
43894;DHT22;29556;50.846;4.442;2023-02-15T06:33:38;3.90;85.40
43894;DHT22;29556;50.846;4.442;2023-02-15T06:36:05;3.90;85.40
43894;DHT22;29556;50.846;4.442;2023-02-15T06:38:31;3.90;85.30
43894;DHT22;29556;50.846;4.442;2023-02-15T06:40:57;3.90;85.40
43894;DHT22;29556;50.846;4.442;2023-02-15T06:43:22;3.90;85.40
43894;DHT22;29556;50.846;4.442;2023-02-15T06:45:48;3.90;85.40
43894;DHT22;29556;50.846;4.442;2023-02-15T06:48:14;3.90;85.40
43894;DHT22;29556;50.846;4.442;2023-02-15T06:50:39;3.90;85.40
43894;DHT22;29556;50.846;4.442;2023-02-15T06:53:05;3.90;85.40
43894;DHT22;29556;50.846;4.442;2023-02-15T06:55:30;3.90;85.40
43894;DHT22;29556;50.846;4.442;2023-02-15T06:57:56;3.80;85.40
43894;DHT22;29556;50.846;4.442;2023-02-15T07:00:22;3.90;85.50
43894;DHT22;29556;50.846;4.442;2023-02-15T07:02:56;3.90;85.50
43894;DHT22;29556;50.846;4.442;2023-02-15T07:05:23;3.90;85.60
43894;DHT22;29556;50.846;4.442;2023-02-15T07:07:49;4.00;85.60
43894;DHT22;29556;50.846;4.442;2023-02-15T07:10:15;3.90;85.60
43894;DHT22;29556;50.846;4.442;2023-02-15T07:12:41;3.90;85.60
43894;DHT22;29556;50.846;4.442;2023-02-15T07:15:07;3.90;85.60
43894;DHT22;29556;50.846;4.442;2023-02-15T07:17:35;4.00;85.70
43894;DHT22;29556;50.846;4.442;2023-02-15T07:20:02;4.00;85.80
43894;DHT22;29556;50.846;4.442;2023-02-15T07:22:27;4.00;85.80
43894;DHT22;29556;50.846;4.442;2023-02-15T07:24:53;4.10;85.90
43894;DHT22;29556;50.846;4.442;2023-02-15T07:27:20;4.20;86.40
43894;DHT22;29556;50.846;4.442;2023-02-15T07:29:46;4.10;85.90
43894;DHT22;29556;50.846;4.442;2023-02-15T07:32:14;4.10;85.90
43894;DHT22;29556;50.846;4.442;2023-02-15T07:34:41;4.20;86.00
43894;DHT22;29556;50.846;4.442;2023-02-15T07:37:07;4.20;86.00
43894;DHT22;29556;50.846;4.442;2023-02-15T07:39:32;4.20;86.00
43894;DHT22;29556;50.846;4.442;2023-02-15T07:42:00;4.40;86.20
43894;DHT22;29556;50.846;4.442;2023-02-15T07:44:25;4.30;86.10
43894;DHT22;29556;50.846;4.442;2023-02-15T07:46:51;4.30;86.10
43894;DHT22;29556;50.846;4.442;2023-02-15T07:49:17;4.30;86.10
43894;DHT22;29556;50.846;4.442;2023-02-15T07:51:42;4.30;86.10
43894;DHT22;29556;50.846;4.442;2023-02-15T07:54:08;4.40;86.20
43894;DHT22;29556;50.846;4.442;2023-02-15T07:56:34;4.40;86.20
43894;DHT22;29556;50.846;4.442;2023-02-15T07:58:59;4.60;86.30
43894;DHT22;29556;50.846;4.442;2023-02-15T08:01:33;4.40;86.20
43894;DHT22;29556;50.846;4.442;2023-02-15T08:04:00;4.50;86.20
43894;DHT22;29556;50.846;4.442;2023-02-15T08:06:30;4.50;86.30
43894;DHT22;29556;50.846;4.442;2023-02-15T08:08:56;4.50;86.20
43894;DHT22;29556;50.846;4.442;2023-02-15T08:11:27;4.50;86.30
43894;DHT22;29556;50.846;4.442;2023-02-15T08:14:08;4.70;86.40
43894;DHT22;29556;50.846;4.442;2023-02-15T08:16:40;4.60;86.30
43894;DHT22;29556;50.846;4.442;2023-02-15T08:19:45;4.60;86.40
43894;DHT22;29556;50.846;4.442;2023-02-15T08:22:06;4.70;86.50
43894;DHT22;29556;50.846;4.442;2023-02-15T08:24:34;4.90;86.60
43894;DHT22;29556;50.846;4.442;2023-02-15T08:27:00;4.80;86.60
43894;DHT22;29556;50.846;4.442;2023-02-15T08:29:29;4.80;86.70
43894;DHT22;29556;50.846;4.442;2023-02-15T08:31:59;5.00;86.80
43894;DHT22;29556;50.846;4.442;2023-02-15T08:34:27;5.00;86.90
43894;DHT22;29556;50.846;4.442;2023-02-15T08:36:53;5.00;86.80
43894;DHT22;29556;50.846;4.442;2023-02-15T08:39:19;5.10;86.70
43894;DHT22;29556;50.846;4.442;2023-02-15T08:41:47;5.10;87.00
43894;DHT22;29556;50.846;4.442;2023-02-15T08:44:15;5.20;87.10
43894;DHT22;29556;50.846;4.442;2023-02-15T08:46:43;5.30;87.20
43894;DHT22;29556;50.846;4.442;2023-02-15T08:49:11;5.40;87.30
43894;DHT22;29556;50.846;4.442;2023-02-15T08:51:38;5.40;87.30
43894;DHT22;29556;50.846;4.442;2023-02-15T08:54:07;5.70;87.50
43894;DHT22;29556;50.846;4.442;2023-02-15T08:56:36;5.60;87.50
43894;DHT22;29556;50.846;4.442;2023-02-15T08:59:03;5.70;87.60
43894;DHT22;29556;50.846;4.442;2023-02-15T09:01:32;5.80;87.60
43894;DHT22;29556;50.846;4.442;2023-02-15T09:04:00;5.90;87.70
43894;DHT22;29556;50.846;4.442;2023-02-15T09:06:27;6.10;87.80
43894;DHT22;29556;50.846;4.442;2023-02-15T09:08:55;6.20;87.80
43894;DHT22;29556;50.846;4.442;2023-02-15T09:11:24;6.30;87.80
43894;DHT22;29556;50.846;4.442;2023-02-15T09:14:00;6.40;87.90
43894;DHT22;29556;50.846;4.442;2023-02-15T09:16:28;6.50;87.80
43894;DHT22;29556;50.846;4.442;2023-02-15T09:18:55;6.80;87.90
43894;DHT22;29556;50.846;4.442;2023-02-15T09:21:24;6.90;88.00
43894;DHT22;29556;50.846;4.442;2023-02-15T09:23:52;6.80;88.30
43894;DHT22;29556;50.846;4.442;2023-02-15T09:26:22;7.00;87.60
43894;DHT22;29556;50.846;4.442;2023-02-15T09:28:52;7.30;87.70
43894;DHT22;29556;50.846;4.442;2023-02-15T09:31:22;7.30;87.60
43894;DHT22;29556;50.846;4.442;2023-02-15T09:33:49;7.50;87.50
43894;DHT22;29556;50.846;4.442;2023-02-15T09:36:16;7.50;87.10
43894;DHT22;29556;50.846;4.442;2023-02-15T09:38:42;7.80;87.40
43894;DHT22;29556;50.846;4.442;2023-02-15T09:44:06;7.90;87.20
43894;DHT22;29556;50.846;4.442;2023-02-15T09:49:31;8.20;86.80
43894;DHT22;29556;50.846;4.442;2023-02-15T09:57:50;8.50;86.10
43894;DHT22;29556;50.846;4.442;2023-02-15T10:00:23;8.70;85.60
43894;DHT22;29556;50.846;4.442;2023-02-15T10:20:28;9.20;79.50
43894;DHT22;29556;50.846;4.442;2023-02-15T10:23:08;9.30;78.80
43894;DHT22;29556;50.846;4.442;2023-02-15T10:25:46;9.40;78.40
43894;DHT22;29556;50.846;4.442;2023-02-15T10:28:18;9.40;78.20
43894;DHT22;29556;50.846;4.442;2023-02-15T10:30:50;9.50;78.50
43894;DHT22;29556;50.846;4.442;2023-02-15T10:33:24;9.60;77.70
43894;DHT22;29556;50.846;4.442;2023-02-15T10:36:20;9.60;77.60
43894;DHT22;29556;50.846;4.442;2023-02-15T10:41:46;9.70;75.30
43894;DHT22;29556;50.846;4.442;2023-02-15T10:47:29;9.90;74.60
43894;DHT22;29556;50.846;4.442;2023-02-15T11:00:38;10.30;75.00
43894;DHT22;29556;50.846;4.442;2023-02-15T11:06:09;10.40;72.50
43894;DHT22;29556;50.846;4.442;2023-02-15T11:08:43;10.50;73.10
43894;DHT22;29556;50.846;4.442;2023-02-15T11:11:23;10.60;72.40
43894;DHT22;29556;50.846;4.442;2023-02-15T11:13:54;10.80;72.30
43894;DHT22;29556;50.846;4.442;2023-02-15T11:16:29;10.90;70.40
43894;DHT22;29556;50.846;4.442;2023-02-15T11:19:01;10.90;71.60
43894;DHT22;29556;50.846;4.442;2023-02-15T11:21:34;11.10;69.80
43894;DHT22;29556;50.846;4.442;2023-02-15T11:24:10;11.10;69.90
43894;DHT22;29556;50.846;4.442;2023-02-15T11:29:32;11.40;69.60
43894;DHT22;29556;50.846;4.442;2023-02-15T11:32:20;11.40;70.50
43894;DHT22;29556;50.846;4.442;2023-02-15T11:37:54;11.60;70.20
43894;DHT22;29556;50.846;4.442;2023-02-15T11:40:32;11.70;70.30
43894;DHT22;29556;50.846;4.442;2023-02-15T11:45:45;11.90;69.80
43894;DHT22;29556;50.846;4.442;2023-02-15T11:48:13;11.90;68.30
43894;DHT22;29556;50.846;4.442;2023-02-15T11:50:40;12.00;68.80
43894;DHT22;29556;50.846;4.442;2023-02-15T11:53:17;12.20;69.90
43894;DHT22;29556;50.846;4.442;2023-02-15T11:55:48;12.30;68.80
43894;DHT22;29556;50.846;4.442;2023-02-15T11:58:39;12.30;67.50
43894;DHT22;29556;50.846;4.442;2023-02-15T12:06:42;12.50;67.30
43894;DHT22;29556;50.846;4.442;2023-02-15T12:09:32;12.50;67.50
43894;DHT22;29556;50.846;4.442;2023-02-15T12:14:53;12.50;65.00
43894;DHT22;29556;50.846;4.442;2023-02-15T12:17:34;12.50;65.40
43894;DHT22;29556;50.846;4.442;2023-02-15T12:20:21;12.50;64.70
43894;DHT22;29556;50.846;4.442;2023-02-15T12:22:52;12.50;64.80
43894;DHT22;29556;50.846;4.442;2023-02-15T12:25:41;12.40;64.50
43894;DHT22;29556;50.846;4.442;2023-02-15T12:28:37;12.50;65.30
43894;DHT22;29556;50.846;4.442;2023-02-15T12:31:31;12.50;65.20
43894;DHT22;29556;50.846;4.442;2023-02-15T12:33:55;12.50;65.40
43894;DHT22;29556;50.846;4.442;2023-02-15T12:36:32;12.60;65.80
43894;DHT22;29556;50.846;4.442;2023-02-15T12:41:44;12.80;65.70
43894;DHT22;29556;50.846;4.442;2023-02-15T12:44:18;12.70;65.70
43894;DHT22;29556;50.846;4.442;2023-02-15T12:49:42;12.80;65.80
43894;DHT22;29556;50.846;4.442;2023-02-15T12:54:44;13.00;65.80
43894;DHT22;29556;50.846;4.442;2023-02-15T12:57:25;12.90;65.40
43894;DHT22;29556;50.846;4.442;2023-02-15T12:59:54;13.00;65.10
43894;DHT22;29556;50.846;4.442;2023-02-15T13:04:53;13.00;64.50
43894;DHT22;29556;50.846;4.442;2023-02-15T13:07:19;13.00;64.50
43894;DHT22;29556;50.846;4.442;2023-02-15T13:09:46;13.10;64.50
43894;DHT22;29556;50.846;4.442;2023-02-15T13:12:33;13.00;64.40
43894;DHT22;29556;50.846;4.442;2023-02-15T13:15:01;13.00;64.30
43894;DHT22;29556;50.846;4.442;2023-02-15T13:17:30;13.00;64.30
43894;DHT22;29556;50.846;4.442;2023-02-15T13:20:20;12.90;64.20
43894;DHT22;29556;50.846;4.442;2023-02-15T13:22:50;13.00;64.60
43894;DHT22;29556;50.846;4.442;2023-02-15T13:25:18;13.10;64.50
43894;DHT22;29556;50.846;4.442;2023-02-15T13:27:50;13.00;64.10
43894;DHT22;29556;50.846;4.442;2023-02-15T13:30:22;13.10;64.60
43894;DHT22;29556;50.846;4.442;2023-02-15T13:32:56;13.10;63.70
43894;DHT22;29556;50.846;4.442;2023-02-15T13:35:25;13.20;64.30
43894;DHT22;29556;50.846;4.442;2023-02-15T13:38:03;13.30;63.60
43894;DHT22;29556;50.846;4.442;2023-02-15T13:40:43;13.30;63.60
43894;DHT22;29556;50.846;4.442;2023-02-15T13:43:36;13.40;63.60
43894;DHT22;29556;50.846;4.442;2023-02-15T13:46:48;13.50;63.60
43894;DHT22;29556;50.846;4.442;2023-02-15T13:49:09;13.40;62.30
43894;DHT22;29556;50.846;4.442;2023-02-15T13:51:41;13.40;62.90
43894;DHT22;29556;50.846;4.442;2023-02-15T13:57:20;13.40;62.90
43894;DHT22;29556;50.846;4.442;2023-02-15T14:00:02;13.40;62.50
43894;DHT22;29556;50.846;4.442;2023-02-15T14:05:47;13.50;63.10
43894;DHT22;29556;50.846;4.442;2023-02-15T14:07:51;13.60;63.30
43894;DHT22;29556;50.846;4.442;2023-02-15T14:13:33;13.60;63.50
43894;DHT22;29556;50.846;4.442;2023-02-15T14:18:46;13.60;63.40
43894;DHT22;29556;50.846;4.442;2023-02-15T14:21:47;13.50;63.30
43894;DHT22;29556;50.846;4.442;2023-02-15T14:30:12;13.50;63.20
43894;DHT22;29556;50.846;4.442;2023-02-15T14:32:44;13.50;63.20
43894;DHT22;29556;50.846;4.442;2023-02-15T14:35:16;13.50;62.50
43894;DHT22;29556;50.846;4.442;2023-02-15T14:37:58;13.40;62.60
43894;DHT22;29556;50.846;4.442;2023-02-15T14:40:41;13.40;62.80
43894;DHT22;29556;50.846;4.442;2023-02-15T14:46:29;13.20;62.60
43894;DHT22;29556;50.846;4.442;2023-02-15T14:49:03;13.20;62.60
43894;DHT22;29556;50.846;4.442;2023-02-15T14:59:38;13.20;63.00
43894;DHT22;29556;50.846;4.442;2023-02-15T15:04:42;13.20;63.20
43894;DHT22;29556;50.846;4.442;2023-02-15T15:07:20;13.20;63.30
43894;DHT22;29556;50.846;4.442;2023-02-15T15:10:05;13.20;63.40
43894;DHT22;29556;50.846;4.442;2023-02-15T15:12:51;13.20;63.50
43894;DHT22;29556;50.846;4.442;2023-02-15T15:25:45;13.20;64.50
43894;DHT22;29556;50.846;4.442;2023-02-15T15:31:17;13.10;64.50
43894;DHT22;29556;50.846;4.442;2023-02-15T15:39:18;13.20;64.60
43894;DHT22;29556;50.846;4.442;2023-02-15T15:42:16;13.20;64.60
43894;DHT22;29556;50.846;4.442;2023-02-15T15:45:23;13.20;64.80
43894;DHT22;29556;50.846;4.442;2023-02-15T15:50:39;13.20;64.90
43894;DHT22;29556;50.846;4.442;2023-02-15T15:53:06;13.30;65.00
43894;DHT22;29556;50.846;4.442;2023-02-15T15:55:41;13.20;65.10
43894;DHT22;29556;50.846;4.442;2023-02-15T15:58:08;13.10;65.20
43894;DHT22;29556;50.846;4.442;2023-02-15T16:00:47;13.00;65.30
43894;DHT22;29556;50.846;4.442;2023-02-15T16:03:25;12.90;65.70
43894;DHT22;29556;50.846;4.442;2023-02-15T16:05:52;12.90;65.70
43894;DHT22;29556;50.846;4.442;2023-02-15T16:10:55;12.80;66.40
43894;DHT22;29556;50.846;4.442;2023-02-15T16:13:21;12.70;66.50
43894;DHT22;29556;50.846;4.442;2023-02-15T16:15:51;12.70;66.50
43894;DHT22;29556;50.846;4.442;2023-02-15T16:18:20;12.70;66.90
43894;DHT22;29556;50.846;4.442;2023-02-15T16:21:12;12.60;67.10
43894;DHT22;29556;50.846;4.442;2023-02-15T16:29:15;12.50;67.50
43894;DHT22;29556;50.846;4.442;2023-02-15T16:31:41;12.40;67.60
43894;DHT22;29556;50.846;4.442;2023-02-15T16:34:16;12.40;67.70
43894;DHT22;29556;50.846;4.442;2023-02-15T16:36:41;12.20;68.20
43894;DHT22;29556;50.846;4.442;2023-02-15T16:39:18;12.20;68.20
43894;DHT22;29556;50.846;4.442;2023-02-15T16:41:44;12.20;68.30
43894;DHT22;29556;50.846;4.442;2023-02-15T16:44:19;12.10;68.60
43894;DHT22;29556;50.846;4.442;2023-02-15T16:46:50;12.10;68.80
43894;DHT22;29556;50.846;4.442;2023-02-15T16:49:20;12.00;68.90
43894;DHT22;29556;50.846;4.442;2023-02-15T16:52:01;12.00;69.10
43894;DHT22;29556;50.846;4.442;2023-02-15T16:54:28;11.90;69.30
43894;DHT22;29556;50.846;4.442;2023-02-15T16:56:55;12.00;69.50
43894;DHT22;29556;50.846;4.442;2023-02-15T17:01:56;11.80;70.10
43894;DHT22;29556;50.846;4.442;2023-02-15T17:04:26;11.70;70.20
43894;DHT22;29556;50.846;4.442;2023-02-15T17:09:28;11.50;70.80
43894;DHT22;29556;50.846;4.442;2023-02-15T17:11:54;11.40;70.90
43894;DHT22;29556;50.846;4.442;2023-02-15T17:14:21;11.30;71.20
43894;DHT22;29556;50.846;4.442;2023-02-15T17:17:12;11.20;71.40
43894;DHT22;29556;50.846;4.442;2023-02-15T17:19:53;11.30;71.80
43894;DHT22;29556;50.846;4.442;2023-02-15T17:22:25;11.10;72.00
43894;DHT22;29556;50.846;4.442;2023-02-15T17:25:03;11.00;72.20
43894;DHT22;29556;50.846;4.442;2023-02-15T17:27:30;11.00;72.60
43894;DHT22;29556;50.846;4.442;2023-02-15T17:30:05;10.90;72.70
43894;DHT22;29556;50.846;4.442;2023-02-15T17:32:38;10.80;72.90
43894;DHT22;29556;50.846;4.442;2023-02-15T17:35:20;10.80;73.20
43894;DHT22;29556;50.846;4.442;2023-02-15T17:37:48;10.80;73.60
43894;DHT22;29556;50.846;4.442;2023-02-15T17:42:44;10.80;74.10
43894;DHT22;29556;50.846;4.442;2023-02-15T17:45:10;10.70;74.20
43894;DHT22;29556;50.846;4.442;2023-02-15T17:47:35;10.60;75.10
43894;DHT22;29556;50.846;4.442;2023-02-15T17:50:03;10.70;74.50
43894;DHT22;29556;50.846;4.442;2023-02-15T17:52:30;10.60;74.50
43894;DHT22;29556;50.846;4.442;2023-02-15T17:54:56;10.60;74.70
43894;DHT22;29556;50.846;4.442;2023-02-15T17:57:40;10.60;74.80
43894;DHT22;29556;50.846;4.442;2023-02-15T18:00:07;10.60;75.00
43894;DHT22;29556;50.846;4.442;2023-02-15T18:02:51;10.50;75.00
43894;DHT22;29556;50.846;4.442;2023-02-15T18:05:36;10.50;75.20
43894;DHT22;29556;50.846;4.442;2023-02-15T18:08:26;10.40;75.30
43894;DHT22;29556;50.846;4.442;2023-02-15T18:11:11;10.40;75.50
43894;DHT22;29556;50.846;4.442;2023-02-15T18:13:55;10.40;75.80
43894;DHT22;29556;50.846;4.442;2023-02-15T18:16:26;10.40;76.00
43894;DHT22;29556;50.846;4.442;2023-02-15T18:18:54;10.30;76.10
43894;DHT22;29556;50.846;4.442;2023-02-15T18:21:20;10.20;76.10
43894;DHT22;29556;50.846;4.442;2023-02-15T18:23:45;10.20;76.40
43894;DHT22;29556;50.846;4.442;2023-02-15T18:26:25;10.30;76.60
43894;DHT22;29556;50.846;4.442;2023-02-15T18:28:51;10.20;76.60
43894;DHT22;29556;50.846;4.442;2023-02-15T18:31:18;10.30;77.50
43894;DHT22;29556;50.846;4.442;2023-02-15T18:33:46;10.20;76.80
43894;DHT22;29556;50.846;4.442;2023-02-15T18:36:39;10.20;77.10
43894;DHT22;29556;50.846;4.442;2023-02-15T18:41:44;10.10;77.30
43894;DHT22;29556;50.846;4.442;2023-02-15T18:44:13;10.20;77.50
43894;DHT22;29556;50.846;4.442;2023-02-15T18:46:39;10.10;77.60
43894;DHT22;29556;50.846;4.442;2023-02-15T18:49:05;10.20;77.90
43894;DHT22;29556;50.846;4.442;2023-02-15T18:51:30;10.20;78.70
43894;DHT22;29556;50.846;4.442;2023-02-15T18:53:57;10.20;77.80
43894;DHT22;29556;50.846;4.442;2023-02-15T18:56:23;10.30;77.80
43894;DHT22;29556;50.846;4.442;2023-02-15T18:58:49;10.20;77.70
43894;DHT22;29556;50.846;4.442;2023-02-15T19:01:19;10.20;77.80
43894;DHT22;29556;50.846;4.442;2023-02-15T19:03:47;10.30;77.90